Time;durP1;ratioP1;P1;durP2;ratioP2;P2;SDS_P1;SDS_P2;PMS_P1;PMS_P2;Temp;Humidity;BMP_temperature;BMP_pressure;BME280_temperature;BME280_humidity;BME280_pressure;Samples;Min_cycle;Max_cycle;Signal;HPM_P1;HPM_P2
2021/04/16 00:02:16;;;;;;;3.77;1.37;;;;;;;3.09;68.64;102018.94;5035016;28;20179;-64
2021/04/16 00:04:41;;;;;;;8.10;1.70;;;;;;;3.15;68.19;102020.66;5033555;28;20234;-66
2021/04/16 00:07:06;;;;;;;3.27;1.37;;;;;;;3.12;68.69;102015.41;5034717;28;20179;-66
2021/04/16 00:09:32;;;;;;;1.63;1.40;;;;;;;3.06;68.97;102021.59;5034943;28;20235;-66
2021/04/16 00:11:57;;;;;;;3.27;1.30;;;;;;;3.04;68.84;102015.44;5034809;28;20524;-66
2021/04/16 00:14:23;;;;;;;5.53;1.90;;;;;;;3.03;68.76;102007.53;5034802;28;20207;-65
2021/04/16 00:16:48;;;;;;;4.27;1.43;;;;;;;2.96;69.07;102014.56;5034852;28;20383;-65
2021/04/16 00:19:14;;;;;;;2.03;1.33;;;;;;;3.02;68.27;102017.22;5035053;28;20174;-65
2021/04/16 00:21:39;;;;;;;4.40;1.33;;;;;;;3.03;68.31;102010.16;5034905;28;20630;-65
2021/04/16 00:24:05;;;;;;;4.83;1.33;;;;;;;3.06;67.83;101996.97;5034930;28;20209;-66
2021/04/16 00:26:30;;;;;;;2.63;1.37;;;;;;;3.02;67.62;101992.59;5034570;28;20517;-65
2021/04/16 00:28:56;;;;;;;2.00;1.27;;;;;;;3.17;66.21;101989.88;5034457;28;20265;-65
2021/04/16 00:31:24;;;;;;;3.07;1.20;;;;;;;3.13;65.68;101985.50;5034315;28;20179;-65
2021/04/16 00:33:50;;;;;;;2.00;1.20;;;;;;;3.14;65.75;101982.84;5034276;28;20306;-66
2021/04/16 00:36:16;;;;;;;4.27;1.10;;;;;;;3.13;65.55;101989.03;5034400;28;20175;-65
2021/04/16 00:38:42;;;;;;;5.67;1.30;;;;;;;3.13;65.65;101983.75;5016691;28;20186;-66
2021/04/16 00:41:09;;;;;;;2.60;1.20;;;;;;;3.07;65.68;101985.53;5034437;28;20183;-65
2021/04/16 00:43:36;;;;;;;2.93;1.23;;;;;;;3.05;65.45;101989.94;5034102;28;20603;-65
2021/04/16 00:46:13;;;;;;;3.93;1.23;;;;;;;3.07;65.52;101975.84;5034355;28;20191;-65
2021/04/16 00:48:42;;;;;;;4.67;1.40;;;;;;;3.10;64.84;101977.59;5034026;28;20290;-65
2021/04/16 00:51:14;;;;;;;7.87;1.50;;;;;;;3.13;64.49;101983.75;5033164;28;20176;-65
2021/04/16 00:53:39;;;;;;;3.97;1.00;;;;;;;3.13;64.55;101977.59;5033210;28;20202;-65
2021/04/16 00:56:05;;;;;;;4.53;1.17;;;;;;;3.11;64.69;101974.09;5032615;28;20237;-64
2021/04/16 00:58:31;;;;;;;4.50;1.30;;;;;;;3.10;64.71;101977.59;5032612;28;20179;-65
2021/04/16 01:00:57;;;;;;;1.87;1.30;;;;;;;3.18;64.38;101973.16;5033667;28;20179;-66
2021/04/16 01:03:23;;;;;;;2.83;1.10;;;;;;;3.21;63.75;101962.59;5033658;28;20183;-65
2021/04/16 01:05:53;;;;;;;3.90;1.37;;;;;;;3.10;64.55;101972.31;5034456;28;20186;-65
2021/04/16 01:08:18;;;;;;;2.30;1.10;;;;;;;3.12;63.96;101970.56;5032881;28;20639;-66
2021/04/16 01:10:43;;;;;;;3.47;1.00;;;;;;;3.12;64.34;101965.28;5034498;28;20186;-64
2021/04/16 01:13:08;;;;;;;2.20;1.17;;;;;;;3.19;63.62;101964.38;5034176;28;20183;-65
2021/04/16 01:15:38;;;;;;;2.83;0.83;;;;;;;3.13;63.77;101974.94;5034155;28;20195;-65
2021/04/16 01:18:17;;;;;;;3.37;0.90;;;;;;;3.12;64.04;101966.16;5032477;28;20182;-65
2021/04/16 01:20:44;;;;;;;1.13;1.03;;;;;;;3.09;64.06;101968.81;5033751;28;20193;-65
2021/04/16 01:23:18;;;;;;;3.63;1.03;;;;;;;3.09;64.37;101970.56;5032623;28;20211;-65
2021/04/16 01:25:43;;;;;;;4.67;1.30;;;;;;;3.10;64.07;101964.41;5016127;28;20170;-65
2021/04/16 01:28:09;;;;;;;2.83;1.20;;;;;;;3.06;64.19;101965.31;5033376;28;20200;-65
2021/04/16 01:30:35;;;;;;;2.67;0.90;;;;;;;3.07;63.97;101967.06;5033879;28;20282;-65
2021/04/16 01:33:01;;;;;;;1.90;1.00;;;;;;;3.10;63.75;101964.41;5034081;28;20193;-65
2021/04/16 01:35:31;;;;;;;6.67;1.00;;;;;;;3.07;64.04;101960.03;5033665;28;20249;-65
2021/04/16 01:37:56;;;;;;;4.97;1.00;;;;;;;3.09;64.03;101962.66;5033436;28;20262;-65
2021/04/16 01:40:23;;;;;;;5.43;1.20;;;;;;;3.07;63.94;101952.13;5031980;28;20540;-65
2021/04/16 01:42:48;;;;;;;3.43;1.00;;;;;;;3.07;63.67;101952.13;5032008;28;20186;-65
2021/04/16 01:45:24;;;;;;;3.07;1.30;;;;;;;3.01;64.31;101953.91;5033315;28;20213;-65
2021/04/16 01:47:57;;;;;;;2.00;0.80;;;;;;;2.93;64.46;101958.31;5034162;28;20631;-65
2021/04/16 01:50:23;;;;;;;1.97;1.23;;;;;;;2.87;64.92;101960.97;5031811;28;20227;-66
2021/04/16 01:52:48;;;;;;;2.70;1.03;;;;;;;2.82;64.74;101951.31;5033186;28;20207;-65
2021/04/16 01:55:13;;;;;;;1.03;0.93;;;;;;;2.81;65.06;101954.84;5031950;28;20206;-65
2021/04/16 01:57:39;;;;;;;3.50;1.00;;;;;;;2.81;64.71;101951.31;5033103;28;20342;-65
2021/04/16 02:00:15;;;;;;;2.10;1.13;;;;;;;2.75;65.21;101964.53;5033383;28;20189;-65
2021/04/16 02:02:40;;;;;;;3.13;1.00;;;;;;;2.67;65.46;101963.69;5033365;28;20194;-66
2021/04/16 02:05:07;;;;;;;3.27;1.17;;;;;;;2.59;65.84;101974.22;5032873;28;20678;-65
2021/04/16 02:07:32;;;;;;;1.50;1.00;;;;;;;2.56;65.92;101963.69;5032891;28;20179;-65
2021/04/16 02:09:57;;;;;;;2.93;1.10;;;;;;;2.43;66.52;101970.75;5032911;28;20619;-64
2021/04/16 02:12:24;;;;;;;5.23;1.60;;;;;;;2.57;66.06;101973.34;5036791;28;20179;-64
2021/04/16 02:14:51;;;;;;;4.77;0.87;;;;;;;2.47;66.20;101971.63;5035910;28;20683;-64
2021/04/16 02:17:20;;;;;;;4.40;1.00;;;;;;;2.42;66.28;101965.47;5035558;28;20263;-65
2021/04/16 02:19:46;;;;;;;2.13;0.80;;;;;;;2.40;66.30;101967.25;5035480;28;20187;-65
2021/04/16 02:22:20;;;;;;;1.53;0.93;;;;;;;2.34;66.82;101962.84;5036552;28;20186;-66
2021/04/16 02:24:46;;;;;;;2.37;1.20;;;;;;;2.39;66.52;101957.59;5035433;28;20678;-66
2021/04/16 02:27:13;;;;;;;2.97;1.00;;;;;;;2.29;67.17;101959.34;5036464;28;20201;-66
2021/04/16 02:29:38;;;;;;;2.20;1.00;;;;;;;2.35;67.21;101966.38;5036853;28;20296;-64
2021/04/16 02:32:04;;;;;;;4.10;1.00;;;;;;;2.31;67.09;101970.78;5036648;28;20186;-64
2021/04/16 02:34:30;;;;;;;3.63;1.10;;;;;;;2.16;68.15;101963.72;5036348;28;20763;-65
2021/04/16 02:36:57;;;;;;;2.60;1.07;;;;;;;2.08;68.43;101962.88;5036231;28;20179;-64
2021/04/16 02:39:23;;;;;;;4.23;1.20;;;;;;;2.06;68.69;101967.25;5036241;28;20174;-65
2021/04/16 02:41:49;;;;;;;1.83;1.17;;;;;;;1.97;69.60;101966.38;5036352;28;20247;-65
2021/04/16 02:44:14;;;;;;;5.80;1.40;;;;;;;1.90;70.17;101962.88;5034842;28;20240;-65
2021/04/16 02:46:40;;;;;;;2.50;1.10;;;;;;;1.91;70.23;101959.38;5036147;28;20232;-65
2021/04/16 02:49:05;;;;;;;5.17;1.10;;;;;;;1.83;71.00;101961.97;5035044;28;20210;-65
2021/04/16 02:51:30;;;;;;;1.13;0.90;;;;;;;1.83;70.99;101958.47;5036526;28;20181;-65
2021/04/16 02:53:56;;;;;;;3.70;1.57;;;;;;;1.82;70.86;101947.03;5034936;28;20556;-64
2021/04/16 02:56:21;;;;;;;2.27;1.20;;;;;;;1.76;71.37;101944.41;5035001;28;20211;-64
2021/04/16 02:58:46;;;;;;;2.43;1.30;;;;;;;1.81;70.96;101942.66;5034995;28;20247;-66
2021/04/16 03:01:12;;;;;;;6.33;1.27;;;;;;;1.76;71.21;101944.41;5036109;28;20633;-65
2021/04/16 03:03:37;;;;;;;3.73;1.57;;;;;;;1.73;71.53;101941.78;5034569;28;20200;-65
2021/04/16 03:06:04;;;;;;;4.13;1.40;;;;;;;1.74;71.68;101954.06;5035166;28;20634;-65
2021/04/16 03:08:30;;;;;;;5.17;1.33;;;;;;;1.70;71.99;101940.91;5035749;28;20212;-66
2021/04/16 03:10:55;;;;;;;2.53;1.27;;;;;;;1.69;71.69;101945.28;5036044;28;20180;-65
2021/04/16 03:13:20;;;;;;;2.47;1.30;;;;;;;1.73;71.58;101941.78;5034710;28;20526;-65
2021/04/16 03:15:46;;;;;;;3.43;1.17;;;;;;;1.73;71.53;101947.03;5036267;28;20300;-66
2021/04/16 03:18:12;;;;;;;2.17;1.30;;;;;;;1.74;71.26;101943.53;5035817;28;20182;-65
2021/04/16 03:20:37;;;;;;;1.83;1.30;;;;;;;1.70;71.61;101938.28;5035783;28;20636;-65
2021/04/16 03:23:03;;;;;;;3.87;1.73;;;;;;;1.65;71.82;101951.44;5034890;28;20191;-65
2021/04/16 03:25:28;;;;;;;4.93;1.50;;;;;;;1.65;71.77;101937.41;5035557;28;20611;-66
2021/04/16 03:27:54;;;;;;;2.90;1.70;;;;;;;1.65;72.06;101948.81;5034417;28;20178;-65
2021/04/16 03:30:22;;;;;;;5.93;1.50;;;;;;;1.61;72.44;101948.78;5034039;28;20277;-66
2021/04/16 03:32:47;;;;;;;3.30;1.40;;;;;;;1.64;72.19;101943.53;5035170;28;20180;-65
2021/04/16 03:35:13;;;;;;;3.17;1.47;;;;;;;1.68;71.99;101948.81;5035450;28;20201;-65
2021/04/16 03:37:38;;;;;;;2.83;1.50;;;;;;;1.61;72.12;101941.78;5035440;28;20641;-65
2021/04/16 03:40:05;;;;;;;2.03;1.17;;;;;;;1.75;71.60;101944.41;5035332;28;20176;-65
2021/04/16 03:42:31;;;;;;;2.13;1.40;;;;;;;1.68;71.97;101943.53;5036358;28;20242;-65
2021/04/16 03:44:56;;;;;;;3.20;1.23;;;;;;;1.69;72.04;101942.66;5035256;28;20671;-65
2021/04/16 03:47:21;;;;;;;4.90;1.40;;;;;;;1.68;72.28;101953.19;5035052;28;20174;-64
2021/04/16 03:49:47;;;;;;;3.07;1.20;;;;;;;1.65;72.25;101954.06;5033590;28;20201;-64
2021/04/16 03:52:12;;;;;;;4.03;1.63;;;;;;;1.66;72.36;101955.81;5034757;28;20184;-64
2021/04/16 03:54:37;;;;;;;4.07;1.23;;;;;;;1.60;72.45;101953.19;5034826;28;20728;-64
2021/04/16 03:57:04;;;;;;;4.00;1.30;;;;;;;1.70;72.52;101952.31;5034665;28;20200;-64
2021/04/16 03:59:29;;;;;;;5.53;1.20;;;;;;;1.65;72.90;101958.44;5034645;28;20251;-64
2021/04/16 04:01:55;;;;;;;1.20;1.10;;;;;;;1.69;72.65;101955.81;5034767;28;20211;-64
2021/04/16 04:04:21;;;;;;;3.47;1.57;;;;;;;1.63;73.09;101949.69;5034339;28;20197;-64
2021/04/16 04:06:48;;;;;;;4.63;1.50;;;;;;;1.69;72.54;101963.72;5034808;28;20208;-64
2021/04/16 04:09:13;;;;;;;1.40;1.10;;;;;;;1.69;72.75;101962.84;5034352;28;20287;-64
2021/04/16 04:11:38;;;;;;;4.43;1.63;;;;;;;1.76;72.78;101957.56;5034481;28;20237;-66
2021/04/16 04:14:04;;;;;;;2.13;1.23;;;;;;;1.77;72.75;101958.47;5033252;28;20212;-65
2021/04/16 04:16:29;;;;;;;3.60;1.60;;;;;;;1.76;72.97;101956.69;5034509;28;20174;-64
2021/04/16 04:18:55;;;;;;;3.83;1.30;;;;;;;1.79;72.66;101956.69;5034402;28;20264;-65
2021/04/16 04:21:21;;;;;;;2.13;1.00;;;;;;;1.82;72.56;101957.56;5034278;28;20270;-65
2021/04/16 04:23:46;;;;;;;6.07;1.23;;;;;;;1.80;72.99;101958.47;5033234;28;20283;-64
2021/04/16 04:26:12;;;;;;;1.97;1.20;;;;;;;1.83;72.78;101961.09;5034292;28;20175;-65
2021/04/16 04:28:37;;;;;;;2.43;1.10;;;;;;;1.81;73.04;101960.22;5033170;28;20185;-65
2021/04/16 04:31:03;;;;;;;2.67;1.10;;;;;;;1.91;72.83;101962.00;5034149;28;20668;-64
2021/04/16 04:33:28;;;;;;;6.47;1.33;;;;;;;1.90;72.79;101960.25;5033941;28;20176;-65
2021/04/16 04:35:53;;;;;;;4.13;1.43;;;;;;;1.90;73.21;101957.59;5032714;28;20175;-65
2021/04/16 04:38:19;;;;;;;2.67;1.00;;;;;;;1.89;72.83;101955.84;5034051;28;20215;-65
2021/04/16 04:40:45;;;;;;;2.10;1.20;;;;;;;1.95;73.09;101960.25;5033735;28;20653;-64
2021/04/16 04:43:11;;;;;;;1.57;1.30;;;;;;;1.91;73.18;101956.72;5033894;28;20179;-65
2021/04/16 04:45:37;;;;;;;4.10;1.60;;;;;;;1.95;72.77;101968.13;5033527;28;20565;-64
2021/04/16 04:48:03;;;;;;;3.67;1.23;;;;;;;1.96;72.80;101969.91;5033989;28;20185;-65
2021/04/16 04:50:29;;;;;;;6.00;1.30;;;;;;;2.05;72.74;101969.91;5033834;28;20217;-65
2021/04/16 04:52:55;;;;;;;3.23;1.13;;;;;;;2.12;72.46;101969.88;5033977;28;20195;-68
2021/04/16 04:55:24;;;;;;;4.90;1.50;;;;;;;2.14;72.36;101969.88;5032735;28;20228;-69
2021/04/16 04:57:49;;;;;;;6.77;1.40;;;;;;;2.18;72.04;101969.00;5032461;28;20217;-69
2021/04/16 05:00:16;;;;;;;2.83;1.20;;;;;;;2.21;72.25;101969.00;5033734;28;20257;-69
2021/04/16 05:02:41;;;;;;;4.07;1.20;;;;;;;2.17;72.23;101970.75;5032224;28;20185;-69
2021/04/16 05:05:08;;;;;;;2.20;1.27;;;;;;;2.22;72.37;101972.50;5032747;28;20264;-68
2021/04/16 05:07:33;;;;;;;5.03;1.60;;;;;;;2.24;72.06;101979.56;5033404;28;20190;-69
2021/04/16 05:09:58;;;;;;;5.57;1.23;;;;;;;2.31;72.15;101969.91;5033407;28;20211;-68
2021/04/16 05:12:24;;;;;;;4.37;1.30;;;;;;;2.34;71.81;101973.41;5015980;28;20185;-68
2021/04/16 05:14:49;;;;;;;3.13;1.47;;;;;;;2.31;72.38;101972.53;5033134;28;20260;-67
2021/04/16 05:17:14;;;;;;;2.03;1.20;;;;;;;2.33;72.60;101976.03;5032431;28;20178;-68
2021/04/16 05:19:40;;;;;;;2.87;1.10;;;;;;;2.34;72.10;101977.78;5031901;28;20185;-67
2021/04/16 05:22:05;;;;;;;4.20;1.03;;;;;;;2.43;72.17;101972.50;5033208;28;20627;-67
2021/04/16 05:24:34;;;;;;;1.50;1.03;;;;;;;2.53;71.88;101974.22;5033066;28;20199;-67
2021/04/16 05:27:02;;;;;;;1.50;1.00;;;;;;;2.47;72.53;101974.25;5032104;28;20218;-67
2021/04/16 05:29:27;;;;;;;5.03;1.47;;;;;;;2.56;72.27;101983.88;5032970;28;20290;-67
2021/04/16 05:31:53;;;;;;;2.73;1.40;;;;;;;2.63;72.19;101986.53;5031889;28;20214;-67
2021/04/16 05:34:19;;;;;;;2.20;1.10;;;;;;;2.63;71.70;101983.91;5032336;28;20210;-68
2021/04/16 05:36:44;;;;;;;3.30;1.30;;;;;;;2.69;71.91;101980.38;5015448;28;20183;-67
2021/04/16 05:39:10;;;;;;;4.80;1.20;;;;;;;2.77;71.59;101974.19;5033356;28;20174;-67
2021/04/16 05:41:35;;;;;;;2.70;1.27;;;;;;;2.83;71.61;101974.16;5032230;28;20682;-68
2021/04/16 05:44:00;;;;;;;2.90;1.33;;;;;;;2.90;71.08;101984.69;5055471;23;20237;-71
2021/04/16 05:46:25;;;;;;;2.43;1.47;;;;;;;2.93;71.16;101979.41;5035330;28;20182;-70
2021/04/16 05:48:51;;;;;;;4.77;1.30;;;;;;;2.85;71.84;101973.28;5037097;28;20569;-70
2021/04/16 05:51:16;;;;;;;6.77;1.27;;;;;;;2.88;71.84;101979.44;5037445;28;20190;-71
2021/04/16 05:53:41;;;;;;;3.37;1.37;;;;;;;3.03;71.69;101971.47;5036159;28;20521;-70
2021/04/16 05:56:07;;;;;;;4.00;1.30;;;;;;;3.19;71.49;101984.59;5037014;28;20199;-70
2021/04/16 05:58:32;;;;;;;2.53;1.20;;;;;;;3.30;70.87;101978.38;5037368;28;20537;-70
2021/04/16 06:00:57;;;;;;;3.17;1.10;;;;;;;3.38;70.75;101970.44;5036001;28;20191;-69
2021/04/16 06:03:23;;;;;;;1.57;1.10;;;;;;;3.44;70.48;101979.19;5035985;28;20206;-72
2021/04/16 06:05:48;;;;;;;5.53;1.30;;;;;;;3.56;70.19;101974.72;5035640;28;20226;-71
2021/04/16 06:08:17;;;;;;;4.60;1.53;;;;;;;3.53;70.12;101966.84;5037211;28;20696;-71
2021/04/16 06:10:43;;;;;;;3.73;1.40;;;;;;;3.53;70.15;101962.44;5037049;28;20721;-71
2021/04/16 06:13:08;;;;;;;3.70;1.40;;;;;;;3.75;69.94;101969.34;5035497;28;20176;-71
2021/04/16 06:15:33;;;;;;;2.40;1.37;;;;;;;3.68;69.81;101957.03;5035753;28;20199;-71
2021/04/16 06:17:59;;;;;;;1.93;1.03;;;;;;;3.72;69.95;101968.50;5037102;28;20180;-71
2021/04/16 06:20:25;;;;;;;2.80;1.17;;;;;;;3.72;70.20;101979.06;5036747;28;20233;-71
2021/04/16 06:22:53;;;;;;;3.07;1.47;;;;;;;3.91;69.56;101977.13;5035153;28;20225;-71
2021/04/16 06:25:22;;;;;;;2.90;1.33;;;;;;;3.94;68.91;101967.44;5035404;28;20286;-71
2021/04/16 06:27:48;;;;;;;3.97;1.50;;;;;;;3.90;69.60;101965.69;5035676;28;20662;-71
2021/04/16 06:30:14;;;;;;;6.97;1.60;;;;;;;3.86;69.71;101963.09;5035088;28;20196;-71
2021/04/16 06:32:39;;;;;;;5.57;2.13;;;;;;;3.91;69.38;101969.22;5035181;28;20188;-71
2021/04/16 06:35:07;;;;;;;6.10;1.60;;;;;;;3.91;68.63;101964.81;5036369;28;20203;-69
2021/04/16 06:37:33;;;;;;;5.50;1.20;;;;;;;3.97;69.33;101959.47;5036576;28;20258;-71
2021/04/16 06:39:59;;;;;;;8.07;2.03;;;;;;;3.99;68.52;101962.97;5035437;28;20620;-70
2021/04/16 06:42:29;;;;;;;3.80;1.90;;;;;;;4.18;67.87;101947.00;5035339;28;20179;-70
2021/04/16 06:44:58;;;;;;;6.90;2.17;;;;;;;4.24;68.29;101963.66;5018397;28;20777;-71
2021/04/16 06:47:29;;;;;;;5.70;1.20;;;;;;;4.39;68.00;101970.56;5034913;28;20179;-70
2021/04/16 06:49:56;;;;;;;3.53;1.50;;;;;;;4.50;66.49;101962.56;5034647;28;20263;-71
2021/04/16 06:52:25;;;;;;;4.87;1.50;;;;;;;4.65;65.79;101959.75;5018152;28;20183;-71
2021/04/16 06:55:15;;;;;;;4.83;1.23;;;;;;;4.52;65.99;101964.28;5034615;28;20199;-71
2021/04/16 06:57:55;;;;;;;8.43;1.23;;;;;;;4.80;65.48;101964.84;5033434;28;20620;-70
2021/04/16 07:00:31;;;;;;;3.50;1.27;;;;;;;4.95;64.67;101959.41;5018018;28;20255;-71
2021/04/16 07:03:18;;;;;;;4.30;1.60;;;;;;;5.03;64.11;101968.13;5018034;28;20251;-69
2021/04/16 07:05:49;;;;;;;3.77;1.17;;;;;;;5.13;63.11;101968.88;5034745;28;20196;-71
2021/04/16 07:08:33;;;;;;;4.97;1.40;;;;;;;5.28;62.93;101974.00;5034452;28;20171;-71
2021/04/16 07:11:00;;;;;;;4.40;1.93;;;;;;;5.43;63.08;101979.97;5034477;28;20551;-70
2021/04/16 07:13:30;;;;;;;5.13;1.20;;;;;;;5.13;62.65;101953.00;5034361;28;20182;-70
2021/04/16 07:15:56;;;;;;;4.17;1.77;;;;;;;5.41;62.95;101950.00;5017995;28;20205;-70
2021/04/16 07:18:32;;;;;;;3.83;1.83;;;;;;;5.37;63.20;101974.75;5036490;28;20267;-71
2021/04/16 07:20:59;;;;;;;6.57;2.33;;;;;;;5.70;62.81;101976.94;5034753;28;20157;-69
2021/04/16 07:23:24;;;;;;;2.80;1.00;;;;;;;5.26;62.57;101983.72;5034525;28;20259;-71
2021/04/16 07:26:05;;;;;;;3.33;1.17;;;;;;;5.29;62.64;101970.44;5034299;28;20739;-70
2021/04/16 07:28:45;;;;;;;4.70;1.40;;;;;;;5.06;62.92;101967.19;5034563;28;20161;-71
2021/04/16 07:31:36;;;;;;;0.90;0.80;;;;;;;5.25;62.61;101966.09;5035780;28;20622;-71
2021/04/16 07:34:03;;;;;;;3.80;1.47;;;;;;;5.02;62.84;101966.38;5028645;28;20198;-71
2021/04/16 07:36:38;;;;;;;5.27;1.73;;;;;;;5.12;63.82;101972.41;5034023;28;20238;-71
2021/04/16 07:39:12;;;;;;;6.43;1.63;;;;;;;5.05;63.34;101969.88;5034043;28;20257;-70
2021/04/16 07:41:54;;;;;;;3.40;1.30;;;;;;;5.05;63.38;101960.16;5035570;28;20160;-70
2021/04/16 07:44:34;;;;;;;4.03;1.33;;;;;;;5.25;62.80;101968.75;5033739;28;20679;-69
2021/04/16 07:47:01;;;;;;;6.33;1.50;;;;;;;5.11;63.25;101981.25;5018008;28;20706;-71
2021/04/16 07:49:32;;;;;;;3.50;1.20;;;;;;;5.24;62.77;101960.81;5034057;28;20204;-70
2021/04/16 07:52:19;;;;;;;8.97;1.53;;;;;;;5.39;61.85;101960.59;5035280;28;20248;-71
2021/04/16 07:55:07;;;;;;;3.17;1.30;;;;;;;5.99;61.26;101973.88;5033873;28;20718;-71
2021/04/16 07:57:35;;;;;;;5.07;1.10;;;;;;;5.48;61.92;101962.25;5036170;28;20624;-70
2021/04/16 08:00:07;;;;;;;4.77;1.57;;;;;;;5.54;61.48;101972.75;5035485;28;20251;-71
2021/04/16 08:02:35;;;;;;;2.53;1.10;;;;;;;5.74;60.36;101983.06;5033887;28;20680;-71
2021/04/16 08:05:13;;;;;;;3.17;1.10;;;;;;;5.40;61.64;101961.47;5034750;28;20192;-69
2021/04/16 08:07:38;;;;;;;5.83;1.17;;;;;;;5.58;60.83;101963.88;5037721;28;20164;-71
2021/04/16 08:10:14;;;;;;;2.50;0.90;;;;;;;6.03;59.58;101970.28;5034455;28;20215;-71
2021/04/16 08:12:39;;;;;;;7.23;1.30;;;;;;;5.73;60.74;101965.41;5033597;28;20528;-70
2021/04/16 08:15:23;;;;;;;3.43;1.13;;;;;;;6.22;59.05;101982.31;5033216;28;20188;-71
2021/04/16 08:17:49;;;;;;;9.30;1.50;;;;;;;6.33;58.50;101976.00;5033849;28;20165;-70
2021/04/16 08:20:29;;;;;;;3.03;1.10;;;;;;;5.92;59.00;101962.47;5034751;28;20706;-71
2021/04/16 08:22:55;;;;;;;8.17;1.47;;;;;;;5.86;59.53;101951.94;5033289;28;20222;-70
2021/04/16 08:25:32;;;;;;;4.03;1.20;;;;;;;5.91;59.92;101971.34;5033178;28;20196;-70
2021/04/16 08:28:05;;;;;;;5.70;1.40;;;;;;;5.84;59.30;101967.00;5033871;28;20180;-71
2021/04/16 08:30:44;;;;;;;6.33;1.50;;;;;;;6.05;58.98;101971.13;5016966;28;20247;-72
2021/04/16 08:33:19;;;;;;;1.97;1.07;;;;;;;6.51;58.35;101987.13;5033612;28;20167;-71
2021/04/16 08:35:50;;;;;;;2.37;1.00;;;;;;;6.27;57.62;101974.28;5033339;28;20210;-69
2021/04/16 08:38:21;;;;;;;3.13;1.00;;;;;;;6.23;58.18;101970.81;5037364;28;20263;-72
2021/04/16 08:40:49;;;;;;;3.37;1.10;;;;;;;6.65;55.78;101975.38;5033157;28;20203;-71
2021/04/16 08:43:21;;;;;;;4.97;1.20;;;;;;;6.01;57.04;101971.22;5032912;28;20230;-69
2021/04/16 08:45:46;;;;;;;1.30;0.73;;;;;;;6.26;55.15;101968.13;5034792;28;20218;-72
2021/04/16 08:48:20;;;;;;;4.07;1.43;;;;;;;6.49;54.40;101965.06;5039802;28;20255;-71
2021/04/16 08:50:53;;;;;;;3.43;1.20;;;;;;;6.43;55.53;101964.31;5033615;28;20241;-71
2021/04/16 08:53:18;;;;;;;2.97;1.17;;;;;;;6.85;54.99;101974.13;5032801;28;20167;-71
2021/04/16 08:55:46;;;;;;;4.97;1.30;;;;;;;6.70;54.90;101976.19;5032634;28;20198;-71
2021/04/16 08:58:31;;;;;;;3.67;1.00;;;;;;;6.50;54.55;101956.22;5032628;28;20179;-70
2021/04/16 09:00:59;;;;;;;6.37;1.37;;;;;;;6.59;53.29;101958.69;5032623;28;20236;-71
2021/04/16 09:03:39;;;;;;;3.20;1.07;;;;;;;6.45;54.20;101976.63;5032639;28;20181;-71
2021/04/16 09:06:06;;;;;;;4.53;1.60;;;;;;;6.75;54.77;101977.84;5032921;28;20559;-70
2021/04/16 09:08:40;;;;;;;1.67;0.97;;;;;;;7.04;54.33;101971.09;5032906;28;20185;-70
2021/04/16 09:11:08;;;;;;;4.60;1.10;;;;;;;6.65;53.27;101965.66;5032329;28;20164;-71
2021/04/16 09:13:33;;;;;;;4.83;1.60;;;;;;;6.44;54.73;101961.63;5033614;28;20180;-72
2021/04/16 09:16:21;;;;;;;4.03;1.43;;;;;;;6.62;52.97;101955.09;5031989;28;20197;-71
2021/04/16 09:18:52;;;;;;;3.27;1.37;;;;;;;6.71;52.74;101949.63;5033860;28;20264;-70
2021/04/16 09:21:19;;;;;;;4.73;1.20;;;;;;;6.96;52.06;101955.31;5031496;28;20172;-71
2021/04/16 09:23:47;;;;;;;2.30;1.17;;;;;;;6.61;51.85;101913.56;5033348;28;20174;-71
2021/04/16 09:26:48;;;;;;;5.63;1.73;;;;;;;7.05;51.67;101944.50;5033423;28;20182;-71
2021/04/16 09:29:25;;;;;;;1.67;0.90;;;;;;;6.79;50.86;101929.13;5032967;28;20718;-72
2021/04/16 09:31:51;;;;;;;2.77;1.27;;;;;;;6.94;51.59;101938.56;5033512;28;20183;-72
2021/04/16 09:34:22;;;;;;;4.67;1.17;;;;;;;7.41;49.89;101941.97;5033011;28;20255;-71
2021/04/16 09:36:52;;;;;;;4.77;1.10;;;;;;;7.44;49.97;101937.50;5031939;28;20177;-71
2021/04/16 09:39:36;;;;;;;3.90;1.30;;;;;;;7.37;48.73;101930.53;5032029;28;20631;-71
2021/04/16 09:42:37;;;;;;;1.93;1.00;;;;;;;7.43;49.04;101927.78;5032385;28;20171;-71
2021/04/16 09:45:07;;;;;;;3.80;1.13;;;;;;;7.52;49.46;101940.84;5015013;28;20212;-71
2021/04/16 09:47:43;;;;;;;4.40;1.37;;;;;;;7.35;50.22;101939.47;5031581;28;20183;-71
2021/04/16 09:50:25;;;;;;;5.37;0.87;;;;;;;7.39;48.72;101935.81;5032875;28;20195;-71
2021/04/16 09:52:53;;;;;;;2.20;1.20;;;;;;;7.37;47.75;101929.66;5032975;28;20160;-73
2021/04/16 09:55:40;;;;;;;3.73;1.10;;;;;;;7.71;48.26;101929.78;5031667;28;20253;-70
2021/04/16 09:58:06;;;;;;;5.47;1.00;;;;;;;7.40;46.93;101919.84;5032711;28;20258;-70
2021/04/16 10:00:52;;;;;;;3.00;1.00;;;;;;;7.65;46.50;101925.47;5031632;28;20640;-70
2021/04/16 10:03:20;;;;;;;3.10;1.37;;;;;;;7.72;46.37;101915.56;5032888;28;20189;-70
2021/04/16 10:05:46;;;;;;;2.70;1.00;;;;;;;7.63;47.49;101910.50;5031608;28;20238;-70
2021/04/16 10:08:27;;;;;;;1.67;1.00;;;;;;;7.65;46.49;101922.81;5031589;28;20207;-72
2021/04/16 10:10:53;;;;;;;2.33;0.90;;;;;;;8.46;45.82;101927.00;5032930;28;20190;-72
2021/04/16 10:13:18;;;;;;;1.77;0.93;;;;;;;9.01;43.77;101922.81;5031887;28;20183;-71
2021/04/16 10:15:47;;;;;;;4.30;1.20;;;;;;;8.93;44.42;101924.84;5032559;28;20202;-71
2021/04/16 10:18:33;;;;;;;1.97;0.90;;;;;;;7.74;43.85;101908.44;5031320;28;20647;-71
2021/04/16 10:21:05;;;;;;;5.23;0.83;;;;;;;7.93;44.22;101916.84;5031381;28;20194;-70
2021/04/16 10:23:37;;;;;;;3.03;1.17;;;;;;;8.35;42.55;101902.47;5032492;28;20178;-71
2021/04/16 10:35:07;;;;;;;4.87;1.10;;;;;;;10.00;40.55;101902.81;5036772;28;20209;-71
2021/04/16 10:39:01;;;;;;;1.90;1.10;;;;;;;10.47;37.84;101901.22;5034808;28;20652;-72
2021/04/16 10:51:04;;;;;;;2.00;0.80;;;;;;;9.30;41.24;101889.13;5024992;28;20215;-72
2021/04/16 11:23:16;;;;;;;1.73;0.80;;;;;;;17.08;29.27;101874.75;5034658;28;20290;-72
2021/04/16 12:38:59;;;;;;;2.53;1.30;;;;;;;9.55;40.64;101911.41;5033952;28;20183;-68
2021/04/16 12:41:35;;;;;;;3.10;1.30;;;;;;;9.54;40.46;101896.31;5033278;28;20159;-68
2021/04/16 12:44:00;;;;;;;6.63;1.50;;;;;;;9.21;41.73;101905.34;5016323;28;20165;-68
2021/04/16 12:46:34;;;;;;;3.80;1.20;;;;;;;8.81;41.65;101903.00;5033476;28;20204;-68
2021/04/16 12:49:00;;;;;;;2.03;1.10;;;;;;;8.46;41.15;101892.41;5016139;28;20172;-68
2021/04/16 12:51:25;;;;;;;5.00;1.17;;;;;;;9.17;40.79;101901.91;5033803;28;20262;-69
2021/04/16 12:53:50;;;;;;;1.90;1.30;;;;;;;9.08;39.77;101904.88;5033941;28;20188;-67
2021/04/16 12:56:23;;;;;;;5.20;1.00;;;;;;;9.27;40.01;101913.16;5032745;28;20679;-68
2021/04/16 12:58:49;;;;;;;2.80;1.10;;;;;;;8.76;40.82;101898.69;5034330;28;20165;-67
2021/04/16 13:01:22;;;;;;;2.00;1.10;;;;;;;8.57;42.33;101888.59;5032270;28;20263;-68
2021/04/16 13:03:50;;;;;;;2.77;1.23;;;;;;;8.72;41.78;101890.81;5032279;28;20719;-68
2021/04/16 13:06:25;;;;;;;4.13;1.47;;;;;;;8.63;41.80;101889.31;5033743;28;20184;-68
2021/04/16 13:08:51;;;;;;;2.47;1.47;;;;;;;9.06;41.87;101891.59;5033604;28;20160;-69
2021/04/16 13:11:17;;;;;;;2.70;1.10;;;;;;;8.76;40.93;101881.84;5032468;28;20183;-68
2021/04/16 13:13:42;;;;;;;1.87;1.10;;;;;;;9.26;39.97;101892.75;5033344;28;20552;-68
2021/04/16 13:16:08;;;;;;;2.77;1.20;;;;;;;9.72;39.46;101897.53;5015349;28;20200;-68
2021/04/16 13:18:39;;;;;;;8.10;1.10;;;;;;;9.23;39.34;101877.75;5033486;28;20168;-68
2021/04/16 13:21:07;;;;;;;3.50;1.10;;;;;;;9.18;40.52;101876.16;5032054;28;20168;-68
2021/04/16 13:23:32;;;;;;;2.30;1.10;;;;;;;9.27;39.99;101881.19;5032340;28;20563;-69
2021/04/16 13:25:58;;;;;;;2.13;1.00;;;;;;;8.87;40.59;101874.41;5032315;28;20200;-68
2021/04/16 13:28:23;;;;;;;5.30;1.30;;;;;;;9.25;40.93;101880.38;5015490;28;20219;-68
2021/04/16 13:30:48;;;;;;;5.13;1.33;;;;;;;8.49;41.62;101864.84;5033318;28;20192;-68
2021/04/16 13:33:16;;;;;;;3.37;1.30;;;;;;;8.89;42.30;101869.03;5034682;28;20177;-68
2021/04/16 13:35:45;;;;;;;1.37;1.00;;;;;;;8.23;41.64;101864.69;5032400;28;20271;-68
2021/04/16 13:38:23;;;;;;;2.10;1.30;;;;;;;8.00;41.41;101873.25;5032596;28;20176;-69
2021/04/16 13:40:50;;;;;;;3.33;1.60;;;;;;;7.83;42.33;101871.91;5032639;28;20210;-68
2021/04/16 13:43:15;;;;;;;6.60;1.13;;;;;;;7.64;42.32;101875.03;5033791;28;20632;-68
2021/04/16 13:45:40;;;;;;;2.73;1.20;;;;;;;7.78;42.43;101881.75;5031999;28;20218;-68